createdAt,value
2018-12-15T00:00:21.882Z,1.28
2018-12-15T00:01:24.360Z,1.26
2018-12-15T00:02:26.807Z,1.30
2018-12-15T00:03:29.239Z,1.31
2018-12-15T00:04:31.680Z,1.29
2018-12-15T00:05:34.136Z,1.35
2018-12-15T00:06:36.706Z,1.38
2018-12-15T00:07:39.162Z,1.40
2018-12-15T00:08:41.699Z,1.42
2018-12-15T00:09:44.146Z,1.44
2018-12-15T00:10:46.584Z,1.39
2018-12-15T00:11:49.041Z,1.43
2018-12-15T00:12:51.475Z,1.43
2018-12-15T00:13:53.968Z,1.48
2018-12-15T00:14:56.417Z,1.50
2018-12-15T00:15:58.968Z,1.48
2018-12-15T00:17:05.749Z,1.46
2018-12-15T00:18:06.056Z,1.45
2018-12-15T00:19:08.523Z,1.47
2018-12-15T00:20:10.979Z,1.51
2018-12-15T00:21:13.442Z,1.48
2018-12-15T00:22:15.882Z,1.49
2018-12-15T00:23:18.339Z,1.56
2018-12-15T00:24:20.799Z,1.52
2018-12-15T00:25:23.247Z,1.53
2018-12-15T00:26:25.746Z,1.49
2018-12-15T00:27:28.202Z,1.43
2018-12-15T00:28:30.648Z,1.43
2018-12-15T00:29:33.086Z,1.41
2018-12-15T00:30:35.540Z,1.40
2018-12-15T00:31:37.988Z,1.44
2018-12-15T00:32:40.439Z,1.43
2018-12-15T00:33:42.883Z,1.46
2018-12-15T00:34:45.332Z,1.43
2018-12-15T00:35:47.787Z,1.43
2018-12-15T00:36:50.252Z,1.47
2018-12-15T00:37:52.708Z,1.41
2018-12-15T00:38:55.163Z,1.40
2018-12-15T00:39:57.628Z,1.41
2018-12-15T00:41:00.074Z,1.39
2018-12-15T00:42:02.530Z,1.39
2018-12-15T00:43:04.994Z,1.39
2018-12-15T00:44:07.475Z,1.38
2018-12-15T00:45:09.914Z,1.37
2018-12-15T00:46:12.352Z,1.39
2018-12-15T00:47:14.815Z,1.35
2018-12-15T00:48:17.292Z,1.38
2018-12-15T00:49:19.731Z,1.38
2018-12-15T00:50:22.176Z,1.37
2018-12-15T00:51:24.621Z,1.30
2018-12-15T00:52:27.078Z,1.26
2018-12-15T00:53:29.526Z,1.29
2018-12-15T00:54:31.965Z,1.30
2018-12-15T00:55:34.437Z,1.28
2018-12-15T00:56:36.880Z,1.30
2018-12-15T00:57:39.344Z,1.38
2018-12-15T00:58:41.790Z,1.38
2018-12-15T00:59:44.228Z,1.30
2018-12-15T01:00:46.659Z,1.27
2018-12-15T01:01:49.119Z,1.33
2018-12-15T01:02:51.572Z,1.34
2018-12-15T01:03:54.016Z,1.34
2018-12-15T01:04:56.455Z,1.29
2018-12-15T01:05:58.976Z,1.26
2018-12-15T01:07:01.414Z,1.28
2018-12-15T01:08:03.962Z,1.29
2018-12-15T01:09:06.500Z,1.28
2018-12-15T01:10:08.935Z,1.31
2018-12-15T01:11:11.466Z,1.29
2018-12-15T01:12:13.935Z,1.28
2018-12-15T01:13:16.566Z,1.29
2018-12-15T01:14:19.030Z,1.30
2018-12-15T01:15:27.142Z,1.32
2018-12-15T01:16:29.588Z,1.36
2018-12-15T01:17:32.024Z,1.36
2018-12-15T01:18:34.483Z,1.37
2018-12-15T01:19:36.947Z,1.32
2018-12-15T01:20:39.387Z,1.28
2018-12-15T01:21:41.840Z,1.27
2018-12-15T01:22:44.272Z,1.30
2018-12-15T01:23:46.719Z,1.29
2018-12-15T01:24:49.169Z,1.35
2018-12-15T01:25:51.614Z,1.36
2018-12-15T01:26:54.053Z,1.36
2018-12-15T01:27:56.502Z,1.38
2018-12-15T01:28:58.967Z,1.43
2018-12-15T01:30:01.415Z,1.42
2018-12-15T01:31:03.856Z,1.39
2018-12-15T01:32:06.313Z,1.36
2018-12-15T01:33:08.756Z,1.32
2018-12-15T01:34:11.213Z,1.30
2018-12-15T01:35:13.664Z,1.29
2018-12-15T01:36:16.156Z,1.36
2018-12-15T01:37:18.596Z,1.34
2018-12-15T01:38:21.036Z,1.33
2018-12-15T01:39:23.552Z,1.35
2018-12-15T01:40:25.995Z,1.31
2018-12-15T01:41:28.435Z,1.30
2018-12-15T01:42:30.933Z,1.32
2018-12-15T01:43:33.372Z,1.33
2018-12-15T01:44:35.844Z,1.35
2018-12-15T01:45:38.304Z,1.38
2018-12-15T01:46:40.743Z,1.39
2018-12-15T01:47:43.185Z,1.41
2018-12-15T01:48:45.623Z,1.42
2018-12-15T01:49:48.090Z,1.39
2018-12-15T01:50:50.540Z,1.42
2018-12-15T01:51:52.996Z,1.46
2018-12-15T01:52:55.438Z,1.47
2018-12-15T01:53:57.903Z,1.43
2018-12-15T01:55:00.379Z,1.44
2018-12-15T01:56:02.821Z,1.45
2018-12-15T01:57:05.287Z,1.42
2018-12-15T01:58:07.723Z,1.47
2018-12-15T01:59:10.183Z,1.47
2018-12-15T02:00:13.239Z,1.45
2018-12-15T02:01:15.687Z,1.42
2018-12-15T02:02:18.127Z,1.36
2018-12-15T02:03:20.635Z,1.38
2018-12-15T02:04:23.111Z,1.41
2018-12-15T02:05:25.570Z,1.39
2018-12-15T02:06:28.049Z,1.38
2018-12-15T02:07:30.493Z,1.41
2018-12-15T02:08:32.945Z,1.43
2018-12-15T02:09:35.440Z,1.46
2018-12-15T02:10:37.891Z,1.48
2018-12-15T02:11:40.357Z,1.53
2018-12-15T02:12:42.867Z,1.56
2018-12-15T02:13:45.307Z,1.51
2018-12-15T02:14:47.766Z,1.50
2018-12-15T02:15:50.244Z,1.48
2018-12-15T02:16:52.690Z,1.46
2018-12-15T02:17:55.188Z,1.47
2018-12-15T02:18:57.683Z,1.51
2018-12-15T02:20:00.121Z,1.45
2018-12-15T02:21:02.617Z,1.46
2018-12-15T02:22:05.054Z,1.40
2018-12-15T02:23:07.490Z,1.35
2018-12-15T02:24:09.973Z,1.32
2018-12-15T02:25:12.606Z,1.31
2018-12-15T02:26:15.083Z,1.38
2018-12-15T02:27:17.535Z,1.39
2018-12-15T02:28:19.996Z,1.42
2018-12-15T02:29:22.439Z,1.43
2018-12-15T02:30:25.067Z,1.46
2018-12-15T02:31:27.514Z,1.47
2018-12-15T02:32:29.963Z,1.46
2018-12-15T02:33:32.430Z,1.41
2018-12-15T02:34:34.869Z,1.33
2018-12-15T02:35:37.376Z,1.22
2018-12-15T02:36:39.840Z,1.13
2018-12-15T02:37:42.276Z,1.03
2018-12-15T02:38:44.795Z,1.00
2018-12-15T02:39:47.234Z,1.07
2018-12-15T02:40:50.624Z,1.14
2018-12-15T02:41:53.096Z,1.17
2018-12-15T02:42:55.535Z,1.16
2018-12-15T02:43:57.984Z,1.17
2018-12-15T02:45:00.421Z,1.08
2018-12-15T02:46:02.885Z,1.03
2018-12-15T02:47:05.335Z,0.97
2018-12-15T02:48:07.785Z,1.00
2018-12-15T02:49:10.223Z,1.05
2018-12-15T02:50:12.687Z,1.10
2018-12-15T02:51:15.144Z,1.17
2018-12-15T02:52:17.587Z,1.26
2018-12-15T02:53:20.030Z,1.29
2018-12-15T02:54:22.473Z,1.30
2018-12-15T02:55:24.960Z,1.32
2018-12-15T02:56:27.415Z,1.35
2018-12-15T02:57:29.868Z,1.32
2018-12-15T02:58:32.300Z,1.31
2018-12-15T02:59:34.750Z,1.32
2018-12-15T03:00:37.252Z,1.41
2018-12-15T03:01:39.702Z,1.41
2018-12-15T03:02:42.158Z,1.39
2018-12-15T03:03:44.689Z,1.38
2018-12-15T03:04:47.133Z,1.41
2018-12-15T03:05:49.573Z,1.39
2018-12-15T03:06:52.039Z,1.39
2018-12-15T03:07:54.502Z,1.37
2018-12-15T03:08:56.934Z,1.35
2018-12-15T03:09:59.367Z,1.36
2018-12-15T03:11:01.813Z,1.40
2018-12-15T03:12:04.273Z,1.45
2018-12-15T03:13:06.711Z,1.45
2018-12-15T03:14:09.151Z,1.44
2018-12-15T03:15:11.583Z,1.45
2018-12-15T03:16:14.013Z,1.47
2018-12-15T03:17:16.471Z,1.50
2018-12-15T03:18:18.922Z,1.44
2018-12-15T03:19:21.360Z,1.37
2018-12-15T03:20:23.800Z,1.35
2018-12-15T03:21:26.236Z,1.32
2018-12-15T03:22:28.783Z,1.33
2018-12-15T03:23:31.230Z,1.35
2018-12-15T03:24:33.679Z,1.37
2018-12-15T03:25:36.127Z,1.36
2018-12-15T03:26:38.588Z,1.37
2018-12-15T03:27:41.040Z,1.39
2018-12-15T03:28:43.482Z,1.39
2018-12-15T03:29:45.919Z,1.41
2018-12-15T03:30:48.355Z,1.40
2018-12-15T03:31:50.820Z,1.37
2018-12-15T03:32:53.290Z,1.35
2018-12-15T03:33:55.729Z,1.34
2018-12-15T03:34:58.166Z,1.29
2018-12-15T03:36:00.643Z,1.30
2018-12-15T03:37:03.080Z,1.36
2018-12-15T03:38:05.541Z,1.37
2018-12-15T03:39:07.971Z,1.44
2018-12-15T03:40:10.431Z,1.34
2018-12-15T03:41:12.862Z,1.27
2018-12-15T03:42:15.300Z,1.25
2018-12-15T03:43:17.758Z,1.27
2018-12-15T03:44:20.191Z,1.26
2018-12-15T03:45:22.642Z,1.27
2018-12-15T03:46:25.186Z,1.27
2018-12-15T03:47:27.654Z,1.24
2018-12-15T03:48:30.117Z,1.24
2018-12-15T03:49:32.567Z,1.20
2018-12-15T03:50:35.169Z,1.22
2018-12-15T03:51:37.611Z,1.27
2018-12-15T03:52:40.064Z,1.30
2018-12-15T03:53:42.512Z,1.32
2018-12-15T03:54:44.952Z,1.33
2018-12-15T03:55:47.399Z,1.36
2018-12-15T03:56:49.837Z,1.40
2018-12-15T03:57:52.292Z,1.40
2018-12-15T03:58:54.777Z,1.41
2018-12-15T03:59:57.241Z,1.41
2018-12-15T04:00:59.671Z,1.38
2018-12-15T04:02:02.124Z,1.39
2018-12-15T04:03:04.575Z,1.40
2018-12-15T04:04:08.730Z,1.42
2018-12-15T04:05:11.231Z,1.43
2018-12-15T04:06:13.677Z,1.38
2018-12-15T04:07:16.115Z,1.38
2018-12-15T04:08:18.590Z,1.37
2018-12-15T04:09:21.044Z,1.36
2018-12-15T04:10:23.496Z,1.38
2018-12-15T04:11:25.939Z,1.40
2018-12-15T04:12:28.399Z,1.42
2018-12-15T04:13:30.895Z,1.45
2018-12-15T04:14:33.357Z,1.43
2018-12-15T04:15:36.184Z,1.41
2018-12-15T04:16:38.619Z,1.42
2018-12-15T04:17:41.052Z,1.42
2018-12-15T04:18:43.649Z,1.43
2018-12-15T04:19:46.111Z,1.42
2018-12-15T04:20:48.554Z,1.44
2018-12-15T04:21:50.992Z,1.46
2018-12-15T04:22:53.432Z,1.44
2018-12-15T04:23:55.873Z,1.44
2018-12-15T04:24:58.346Z,1.39
2018-12-15T04:26:00.783Z,1.37
2018-12-15T04:27:03.226Z,1.42
2018-12-15T04:28:05.668Z,1.40
2018-12-15T04:29:10.087Z,1.39
2018-12-15T04:30:12.561Z,1.36
2018-12-15T04:31:15.001Z,1.33
2018-12-15T04:32:17.442Z,1.31
2018-12-15T04:33:19.886Z,1.24
2018-12-15T04:34:22.331Z,1.12
2018-12-15T04:35:24.804Z,1.09
2018-12-15T04:36:27.241Z,1.08
2018-12-15T04:37:29.674Z,1.10
2018-12-15T04:38:32.111Z,1.12
2018-12-15T04:39:34.545Z,1.12
2018-12-15T04:40:37.179Z,1.17
2018-12-15T04:41:39.642Z,1.22
2018-12-15T04:42:42.166Z,1.23
2018-12-15T04:43:44.711Z,1.22
2018-12-15T04:44:47.150Z,1.15
2018-12-15T04:45:49.725Z,1.18
2018-12-15T04:46:52.284Z,1.20
2018-12-15T04:47:54.719Z,1.22
2018-12-15T04:48:57.248Z,1.26
2018-12-15T04:49:59.684Z,1.22
2018-12-15T04:51:02.165Z,1.27
2018-12-15T04:52:04.737Z,1.27
2018-12-15T04:53:07.172Z,1.27
2018-12-15T04:54:09.615Z,1.29
2018-12-15T04:55:12.049Z,1.33
2018-12-15T04:56:14.520Z,1.37
2018-12-15T04:57:16.993Z,1.36
2018-12-15T04:58:19.548Z,1.36
2018-12-15T04:59:21.999Z,1.37
2018-12-15T05:00:24.450Z,1.39
2018-12-15T05:01:26.891Z,1.42
2018-12-15T05:02:29.346Z,1.43
2018-12-15T05:03:31.779Z,1.43
2018-12-15T05:04:34.211Z,1.43
2018-12-15T05:05:36.646Z,1.46
2018-12-15T05:06:39.537Z,1.43
2018-12-15T05:07:41.979Z,1.40
2018-12-15T05:08:44.425Z,1.39
2018-12-15T05:09:46.866Z,1.39
2018-12-15T05:10:49.299Z,1.38
2018-12-15T05:11:51.848Z,1.31
2018-12-15T05:12:54.295Z,1.26
2018-12-15T05:13:56.752Z,1.19
2018-12-15T05:14:59.182Z,1.08
2018-12-15T05:16:01.626Z,1.07
2018-12-15T05:17:04.083Z,1.11
2018-12-15T05:18:06.523Z,1.10
2018-12-15T05:19:08.992Z,1.13
2018-12-15T05:20:11.426Z,1.16
2018-12-15T05:21:13.862Z,1.23
2018-12-15T05:22:16.413Z,1.27
2018-12-15T05:23:18.868Z,1.25
2018-12-15T05:24:21.312Z,1.31
2018-12-15T05:25:23.800Z,1.32
2018-12-15T05:26:26.238Z,1.32
2018-12-15T05:27:28.892Z,1.33
2018-12-15T05:28:31.351Z,1.35
2018-12-15T05:29:33.794Z,1.44
2018-12-15T05:30:36.235Z,1.44
2018-12-15T05:31:38.702Z,1.40
2018-12-15T05:32:41.171Z,1.46
2018-12-15T05:33:43.633Z,1.48
2018-12-15T05:34:46.114Z,1.46
2018-12-15T05:35:48.583Z,1.50
2018-12-15T05:36:51.057Z,1.51
2018-12-15T05:37:53.523Z,1.49
2018-12-15T05:38:55.980Z,1.48
2018-12-15T05:39:58.418Z,1.47
2018-12-15T05:41:00.888Z,1.53
2018-12-15T05:42:03.340Z,1.46
2018-12-15T05:43:05.791Z,1.42
2018-12-15T05:44:08.238Z,1.38
2018-12-15T05:45:10.690Z,1.36
2018-12-15T05:46:13.144Z,1.40
2018-12-15T05:47:15.583Z,1.39
2018-12-15T05:48:24.823Z,1.39
2018-12-15T05:49:22.506Z,1.43
2018-12-15T05:50:25.016Z,1.48
2018-12-15T05:51:27.483Z,1.47
2018-12-15T05:52:29.950Z,1.45
2018-12-15T05:53:33.485Z,1.44
2018-12-15T05:54:35.930Z,1.46
2018-12-15T05:55:38.387Z,1.48
2018-12-15T05:56:40.868Z,1.48
2018-12-15T05:57:43.303Z,1.46
2018-12-15T05:58:45.756Z,1.46
2018-12-15T05:59:48.199Z,1.47
2018-12-15T06:00:50.631Z,1.50
2018-12-15T06:01:53.067Z,1.53
2018-12-15T06:02:55.523Z,1.53
2018-12-15T06:03:57.958Z,1.60
2018-12-15T06:05:00.485Z,1.61
2018-12-15T06:06:02.926Z,1.65
2018-12-15T06:07:05.371Z,1.67
2018-12-15T06:08:07.832Z,1.65
2018-12-15T06:09:10.279Z,1.62
2018-12-15T06:10:12.747Z,1.63
2018-12-15T06:11:15.179Z,1.66
2018-12-15T06:12:17.614Z,1.68
2018-12-15T06:13:20.092Z,1.68
2018-12-15T06:14:23.215Z,1.67
2018-12-15T06:15:25.642Z,1.65
2018-12-15T06:16:28.183Z,1.62
2018-12-15T06:17:30.614Z,1.63
2018-12-15T06:18:33.067Z,1.62
2018-12-15T06:19:35.721Z,1.63
2018-12-15T06:20:38.278Z,1.63
2018-12-15T06:21:40.758Z,1.55
2018-12-15T06:22:43.200Z,1.49
2018-12-15T06:23:45.692Z,1.49
2018-12-15T06:24:48.149Z,1.49
2018-12-15T06:25:50.581Z,1.49
2018-12-15T06:26:53.046Z,1.57
2018-12-15T06:27:55.579Z,1.58
2018-12-15T06:28:58.028Z,1.60
2018-12-15T06:30:00.500Z,1.59
2018-12-15T06:31:02.941Z,1.61
2018-12-15T06:32:05.389Z,1.60
2018-12-15T06:33:07.823Z,1.54
2018-12-15T06:34:10.267Z,1.53
2018-12-15T06:35:12.714Z,1.53
2018-12-15T06:36:15.149Z,1.53
2018-12-15T06:37:17.592Z,1.56
2018-12-15T06:38:20.063Z,1.60
2018-12-15T06:39:22.615Z,1.59
2018-12-15T06:40:25.451Z,1.57
2018-12-15T06:41:27.914Z,1.53
2018-12-15T06:42:30.359Z,1.55
2018-12-15T06:43:33.088Z,1.50
2018-12-15T06:44:35.539Z,1.49
2018-12-15T06:45:38.096Z,1.51
2018-12-15T06:46:40.535Z,1.56
2018-12-15T06:47:42.968Z,1.56
2018-12-15T06:48:45.434Z,1.56
2018-12-15T06:49:47.980Z,1.55
2018-12-15T06:50:50.451Z,1.55
2018-12-15T06:51:52.900Z,1.56
2018-12-15T06:52:55.340Z,1.57
2018-12-15T06:53:57.776Z,1.57
2018-12-15T06:55:00.237Z,1.57
2018-12-15T06:56:02.724Z,1.58
2018-12-15T06:57:05.186Z,1.51
2018-12-15T06:58:07.658Z,1.48
2018-12-15T06:59:10.118Z,1.48
2018-12-15T07:00:13.542Z,1.50
2018-12-15T07:01:15.997Z,1.53
2018-12-15T07:02:18.464Z,1.53
2018-12-15T07:03:20.919Z,1.53
2018-12-15T07:04:23.380Z,1.51
2018-12-15T07:05:25.895Z,1.51
2018-12-15T07:06:28.382Z,1.50
2018-12-15T07:07:30.844Z,1.48
2018-12-15T07:08:33.289Z,1.48
2018-12-15T07:09:36.919Z,1.47
2018-12-15T07:10:39.378Z,1.45
2018-12-15T07:11:41.859Z,1.47
2018-12-15T07:12:44.814Z,1.49
2018-12-15T07:13:47.254Z,1.47
2018-12-15T07:14:49.721Z,1.46
2018-12-15T07:15:52.257Z,1.46
2018-12-15T07:16:54.876Z,1.44
2018-12-15T07:17:57.342Z,1.45
2018-12-15T07:18:59.838Z,1.46
2018-12-15T07:20:02.685Z,1.44
2018-12-15T07:21:05.141Z,1.40
2018-12-15T07:22:07.595Z,1.39
2018-12-15T07:23:10.060Z,1.36
2018-12-15T07:24:12.579Z,1.39
2018-12-15T07:25:15.049Z,1.45
2018-12-15T07:26:17.565Z,1.45
2018-12-15T07:27:20.049Z,1.45
2018-12-15T07:28:23.003Z,1.45
2018-12-15T07:29:25.780Z,1.41
2018-12-15T07:30:28.577Z,1.38
2018-12-15T07:31:31.129Z,1.39
2018-12-15T07:32:34.266Z,1.39
2018-12-15T07:33:36.742Z,1.42
2018-12-15T07:34:47.359Z,1.44
2018-12-15T07:35:50.137Z,1.47
2018-12-15T07:36:52.747Z,1.48
2018-12-15T07:37:55.206Z,1.50
2018-12-15T07:38:58.071Z,1.48
2018-12-15T07:40:01.013Z,1.48
2018-12-15T07:41:03.851Z,1.50
2018-12-15T07:42:07.683Z,1.60
2018-12-15T07:43:10.465Z,1.54
2018-12-15T07:44:12.907Z,1.45
2018-12-15T07:45:15.347Z,1.40
2018-12-15T07:46:17.785Z,1.43
2018-12-15T07:47:20.251Z,1.41
2018-12-15T07:48:22.707Z,1.41
2018-12-15T07:49:25.147Z,1.39
2018-12-15T07:50:27.622Z,1.36
2018-12-15T07:51:30.167Z,1.36
2018-12-15T07:52:32.725Z,1.38
2018-12-15T07:53:35.345Z,1.37
2018-12-15T07:54:37.783Z,1.36
2018-12-15T07:55:40.226Z,1.33
2018-12-15T07:56:42.671Z,1.34
2018-12-15T07:57:45.133Z,1.37
2018-12-15T07:58:47.600Z,1.37
2018-12-15T07:59:50.061Z,1.38
2018-12-15T08:00:52.508Z,1.43
2018-12-15T08:01:55.094Z,1.48
2018-12-15T08:02:57.627Z,1.45
2018-12-15T08:04:00.147Z,1.43
2018-12-15T08:05:02.592Z,1.43
2018-12-15T08:06:05.033Z,1.47
2018-12-15T08:07:07.501Z,1.48
2018-12-15T08:08:09.972Z,1.49
2018-12-15T08:09:12.444Z,1.50
2018-12-15T08:10:16.876Z,1.55
2018-12-15T08:11:24.962Z,1.55
2018-12-15T08:12:33.016Z,1.43
2018-12-15T08:13:35.587Z,1.43
2018-12-15T08:14:38.102Z,1.41
2018-12-15T08:15:40.584Z,1.44
2018-12-15T08:16:43.106Z,1.43
2018-12-15T08:17:45.619Z,1.41
2018-12-15T08:18:48.142Z,1.44
2018-12-15T08:19:51.823Z,1.47
2018-12-15T08:20:54.348Z,1.48
2018-12-15T08:21:57.080Z,1.50
2018-12-15T08:22:59.690Z,1.50
2018-12-15T08:24:02.408Z,1.51
2018-12-15T08:25:05.916Z,1.47
2018-12-15T08:26:09.013Z,1.47
2018-12-15T08:27:11.544Z,1.47
2018-12-15T08:28:14.055Z,1.45
2018-12-15T08:29:16.541Z,1.44
2018-12-15T08:30:19.020Z,1.45
2018-12-15T08:31:21.503Z,1.45
2018-12-15T08:32:24.168Z,1.45
2018-12-15T08:33:26.774Z,1.45
2018-12-15T08:34:30.948Z,1.43
2018-12-15T08:35:33.407Z,1.41
2018-12-15T08:36:35.912Z,1.47
2018-12-15T08:37:41.641Z,1.49
2018-12-15T08:38:44.143Z,1.51
2018-12-15T08:39:47.685Z,1.53
2018-12-15T08:40:50.222Z,1.53
2018-12-15T08:41:52.706Z,1.49
2018-12-15T08:42:56.023Z,1.48
2018-12-15T08:43:58.563Z,1.49
2018-12-15T08:45:01.031Z,1.59
2018-12-15T08:46:04.685Z,1.63
2018-12-15T08:47:07.148Z,1.60
2018-12-15T08:48:09.865Z,1.55
2018-12-15T08:49:12.553Z,1.56
2018-12-15T08:50:16.053Z,1.53
2018-12-15T08:51:18.508Z,1.49
2018-12-15T08:52:20.950Z,1.43
2018-12-15T08:53:23.589Z,1.44
2018-12-15T08:54:26.060Z,1.46
2018-12-15T08:55:28.526Z,1.46
2018-12-15T08:56:30.978Z,1.47
2018-12-15T08:57:33.414Z,1.43
2018-12-15T08:58:35.871Z,1.43
2018-12-15T08:59:38.354Z,1.41
2018-12-15T09:00:40.838Z,1.38
2018-12-15T09:01:43.278Z,1.44
2018-12-15T09:02:45.713Z,1.46
2018-12-15T09:03:48.151Z,1.47
2018-12-15T09:04:50.605Z,1.48
2018-12-15T09:05:53.138Z,1.43
2018-12-15T09:06:55.591Z,1.40
2018-12-15T09:07:58.047Z,1.43
2018-12-15T09:09:00.491Z,1.44
2018-12-15T09:10:03.043Z,1.38
2018-12-15T09:11:05.593Z,1.40
2018-12-15T09:12:08.059Z,1.37
2018-12-15T09:13:10.494Z,1.40
2018-12-15T09:14:12.931Z,1.44
2018-12-15T09:15:15.378Z,1.46
2018-12-15T09:16:17.845Z,1.47
2018-12-15T09:17:20.322Z,1.48
2018-12-15T09:18:22.777Z,1.49
2018-12-15T09:19:25.231Z,1.46
2018-12-15T09:20:27.769Z,1.46
2018-12-15T09:21:30.243Z,1.45
2018-12-15T09:22:32.699Z,1.44
2018-12-15T09:23:35.154Z,1.44
2018-12-15T09:24:37.698Z,1.44
2018-12-15T09:25:40.129Z,1.53
2018-12-15T09:26:42.603Z,1.57
2018-12-15T09:27:45.063Z,1.56
2018-12-15T09:28:47.579Z,1.59
2018-12-15T09:29:50.057Z,1.60
2018-12-15T09:30:52.506Z,1.59
2018-12-15T09:31:55.004Z,1.51
2018-12-15T09:32:57.468Z,1.47
2018-12-15T09:33:59.906Z,1.47
2018-12-15T09:35:02.382Z,1.47
2018-12-15T09:36:04.860Z,1.47
2018-12-15T09:37:07.320Z,1.44
2018-12-15T09:38:09.751Z,1.48
2018-12-15T09:39:12.238Z,1.44
2018-12-15T09:40:14.760Z,1.39
2018-12-15T09:41:17.210Z,1.38
2018-12-15T09:42:19.714Z,1.41
2018-12-15T09:43:22.163Z,1.42
2018-12-15T09:44:24.621Z,1.37
2018-12-15T09:45:27.069Z,1.34
2018-12-15T09:46:29.592Z,1.40
2018-12-15T09:47:32.054Z,1.46
2018-12-15T09:48:34.526Z,1.48
2018-12-15T09:49:36.958Z,1.49
2018-12-15T09:50:39.383Z,1.46
2018-12-15T09:51:41.912Z,1.42
2018-12-15T09:52:44.374Z,1.40
2018-12-15T09:53:46.838Z,1.40
2018-12-15T09:54:49.284Z,1.43
2018-12-15T09:55:51.724Z,1.43
2018-12-15T09:56:54.167Z,1.44
2018-12-15T09:57:56.619Z,1.44
2018-12-15T09:58:59.172Z,1.49
2018-12-15T10:00:01.603Z,1.49
2018-12-15T10:01:04.171Z,1.51
2018-12-15T10:02:06.696Z,1.48
2018-12-15T10:03:09.179Z,1.46
2018-12-15T10:04:11.624Z,1.43
2018-12-15T10:05:14.070Z,1.40
2018-12-15T10:06:16.505Z,1.41
2018-12-15T10:07:18.950Z,1.41
2018-12-15T10:08:21.433Z,1.42
2018-12-15T10:09:23.931Z,1.47
2018-12-15T10:10:26.457Z,1.50
2018-12-15T10:11:28.927Z,1.51
2018-12-15T10:12:31.443Z,1.50
2018-12-15T10:13:33.899Z,1.52
2018-12-15T10:14:36.379Z,1.55
2018-12-15T10:15:38.858Z,1.55
2018-12-15T10:16:41.299Z,1.55
2018-12-15T10:17:43.731Z,1.50
2018-12-15T10:18:46.229Z,1.47
2018-12-15T10:19:48.724Z,1.47
2018-12-15T10:20:51.156Z,1.48
2018-12-15T10:21:53.578Z,1.49
2018-12-15T10:22:56.029Z,1.56
2018-12-15T10:23:58.538Z,1.57
2018-12-15T10:25:00.981Z,1.62
2018-12-15T10:26:03.484Z,1.64
2018-12-15T10:27:05.918Z,1.65
2018-12-15T10:28:08.353Z,1.65
2018-12-15T10:29:12.807Z,1.60
2018-12-15T10:30:20.999Z,1.59
2018-12-15T10:31:29.033Z,1.59
2018-12-15T10:34:08.166Z,1.49
2018-12-15T10:35:10.635Z,1.46
2018-12-15T10:36:13.086Z,1.43
2018-12-15T10:37:15.523Z,1.41
2018-12-15T10:38:17.989Z,1.46
2018-12-15T10:39:20.565Z,1.42
2018-12-15T10:40:23.029Z,1.44
2018-12-15T10:41:25.494Z,1.53
2018-12-15T10:42:27.945Z,1.47
2018-12-15T10:43:30.463Z,1.48
2018-12-15T10:44:32.924Z,1.51
2018-12-15T10:45:35.382Z,1.55
2018-12-15T10:46:37.818Z,1.53
2018-12-15T10:47:40.299Z,1.58
2018-12-15T10:48:42.745Z,1.61
2018-12-15T10:49:45.240Z,1.59
2018-12-15T10:50:47.707Z,1.56
2018-12-15T10:51:50.168Z,1.53
2018-12-15T10:52:52.611Z,1.53
2018-12-15T10:53:55.043Z,1.55
2018-12-15T10:54:57.503Z,1.56
2018-12-15T10:56:00.131Z,1.57
2018-12-15T10:57:02.569Z,1.58
2018-12-15T10:58:05.067Z,1.56
2018-12-15T10:59:07.516Z,1.53
2018-12-15T11:00:11.954Z,1.50
2018-12-15T11:01:20.078Z,1.51
2018-12-15T11:02:22.520Z,1.53
2018-12-15T11:03:24.963Z,1.50
2018-12-15T11:04:27.394Z,1.47
2018-12-15T11:05:29.847Z,1.45
2018-12-15T11:06:32.298Z,1.43
2018-12-15T11:07:34.750Z,1.44
2018-12-15T11:08:37.196Z,1.45
2018-12-15T11:09:39.638Z,1.46
2018-12-15T11:10:42.098Z,1.49
2018-12-15T11:11:44.572Z,1.60
2018-12-15T11:12:47.003Z,1.62
2018-12-15T11:13:49.430Z,1.62
2018-12-15T11:14:51.870Z,1.57
2018-12-15T11:15:54.318Z,1.58
2018-12-15T11:16:56.777Z,1.57
2018-12-15T11:17:59.205Z,1.59
2018-12-15T11:19:01.636Z,1.59
2018-12-15T11:20:05.174Z,1.56
2018-12-15T11:21:07.725Z,1.54
2018-12-15T11:22:10.167Z,1.53
2018-12-15T11:23:12.606Z,1.55
2018-12-15T11:24:15.043Z,1.56
2018-12-15T11:25:17.478Z,1.59
2018-12-15T11:26:19.933Z,1.59
2018-12-15T11:27:22.411Z,1.58
2018-12-15T11:28:24.864Z,1.61
2018-12-15T11:29:27.306Z,1.71
2018-12-15T11:30:29.752Z,1.71
2018-12-15T11:31:32.202Z,1.66
2018-12-15T11:32:34.655Z,1.66
2018-12-15T11:33:37.122Z,1.67
2018-12-15T11:34:39.558Z,1.64
2018-12-15T11:35:42.004Z,1.61
2018-12-15T11:36:44.457Z,1.64
2018-12-15T11:37:46.944Z,1.64
2018-12-15T11:38:49.535Z,1.64
2018-12-15T11:39:51.995Z,1.65
2018-12-15T11:40:54.498Z,1.64
2018-12-15T11:41:57.001Z,1.64
2018-12-15T11:42:59.455Z,1.65
2018-12-15T11:44:01.934Z,1.69
2018-12-15T11:45:05.469Z,1.70
2018-12-15T11:46:07.974Z,1.74
2018-12-15T11:47:10.455Z,1.71
2018-12-15T11:48:13.433Z,1.71
2018-12-15T11:49:16.035Z,1.72
2018-12-15T11:50:18.496Z,1.66
2018-12-15T11:51:20.932Z,1.64
2018-12-15T11:52:23.399Z,1.60
2018-12-15T11:53:25.856Z,1.59
2018-12-15T11:54:28.324Z,1.60
2018-12-15T11:55:30.814Z,1.63
2018-12-15T11:56:33.291Z,1.63
2018-12-15T11:57:35.786Z,1.61
2018-12-15T11:58:38.239Z,1.64
2018-12-15T11:59:40.735Z,1.66
2018-12-15T12:00:43.168Z,1.67
2018-12-15T12:01:45.635Z,1.63
2018-12-15T12:02:48.117Z,1.64
2018-12-15T12:03:50.836Z,1.63
2018-12-15T12:04:53.327Z,1.62
2018-12-15T12:05:55.775Z,1.67
2018-12-15T12:06:58.220Z,1.68
2018-12-15T12:08:00.683Z,1.68
2018-12-15T12:09:04.088Z,1.66
2018-12-15T12:10:07.234Z,1.64
2018-12-15T12:11:09.713Z,1.60
2018-12-15T12:12:12.173Z,1.59
2018-12-15T12:13:14.628Z,1.59
2018-12-15T12:14:17.134Z,1.60
2018-12-15T12:15:19.661Z,1.58
2018-12-15T12:16:22.128Z,1.56
2018-12-15T12:17:24.575Z,1.55
2018-12-15T12:18:27.029Z,1.54
2018-12-15T12:19:29.481Z,1.53
2018-12-15T12:20:31.920Z,1.53
2018-12-15T12:21:34.388Z,1.49
2018-12-15T12:22:37.188Z,1.55
2018-12-15T12:23:39.642Z,1.55
2018-12-15T12:24:42.249Z,1.58
2018-12-15T12:25:44.680Z,1.60
2018-12-15T12:26:47.117Z,1.60
2018-12-15T12:27:49.567Z,1.61
2018-12-15T12:28:52.157Z,1.62
2018-12-15T12:29:54.632Z,1.65
2018-12-15T12:30:57.186Z,1.66
2018-12-15T12:31:59.686Z,1.65
2018-12-15T12:33:02.131Z,1.64
2018-12-15T12:34:04.595Z,1.65
2018-12-15T12:35:07.136Z,1.68
2018-12-15T12:36:09.582Z,1.66
2018-12-15T12:37:12.025Z,1.65
2018-12-15T12:38:14.463Z,1.66
2018-12-15T12:39:16.916Z,1.69
2018-12-15T12:40:19.364Z,1.69
2018-12-15T12:41:21.814Z,1.70
2018-12-15T12:42:24.255Z,1.69
2018-12-15T12:43:26.697Z,1.69
2018-12-15T12:44:29.151Z,1.69
2018-12-15T12:45:31.835Z,1.69
2018-12-15T12:46:34.346Z,1.70
2018-12-15T12:47:36.779Z,1.72
2018-12-15T12:48:39.344Z,1.71
2018-12-15T12:49:41.818Z,1.72
2018-12-15T12:50:44.266Z,1.67
2018-12-15T12:51:46.718Z,1.68
2018-12-15T12:52:49.155Z,1.72
2018-12-15T12:53:51.587Z,1.64
2018-12-15T12:54:54.046Z,1.57
2018-12-15T12:55:56.502Z,1.50
2018-12-15T12:56:58.935Z,1.47
2018-12-15T12:58:01.376Z,1.45
2018-12-15T12:59:03.896Z,1.44
2018-12-15T13:00:06.717Z,1.45
2018-12-15T13:01:09.171Z,1.47
2018-12-15T13:02:11.612Z,1.53
2018-12-15T13:03:14.058Z,1.63
2018-12-15T13:04:16.492Z,1.65
2018-12-15T13:05:18.945Z,1.72
2018-12-15T13:06:21.393Z,1.79
2018-12-15T13:07:23.823Z,1.82
2018-12-15T13:08:26.280Z,1.82
2018-12-15T13:09:28.723Z,1.82
2018-12-15T13:10:31.176Z,1.80
2018-12-15T13:11:33.919Z,1.78
2018-12-15T13:12:36.585Z,1.79
2018-12-15T13:13:39.871Z,1.82
2018-12-15T13:14:42.686Z,1.81
2018-12-15T13:15:45.253Z,1.82
2018-12-15T13:16:47.788Z,1.88
2018-12-15T13:17:50.282Z,1.87
2018-12-15T13:18:53.876Z,1.90
2018-12-15T13:19:56.488Z,1.96
2018-12-15T13:20:59.058Z,1.96
2018-12-15T13:22:01.541Z,1.94
2018-12-15T13:23:04.041Z,1.89
2018-12-15T13:24:06.830Z,1.89
2018-12-15T13:25:09.339Z,1.96
2018-12-15T13:26:11.794Z,1.93
2018-12-15T13:27:14.246Z,1.89
2018-12-15T13:28:16.676Z,1.83
2018-12-15T13:29:19.109Z,1.82
2018-12-15T13:30:21.662Z,1.80
2018-12-15T13:31:24.167Z,1.83
2018-12-15T13:32:26.668Z,1.80
2018-12-15T13:33:33.015Z,1.86
2018-12-15T13:34:35.501Z,1.81
2018-12-15T13:35:37.975Z,1.82
2018-12-15T13:36:41.007Z,1.77
2018-12-15T13:37:43.520Z,1.72
2018-12-15T13:38:46.860Z,1.69
2018-12-15T13:39:49.384Z,1.67
2018-12-15T13:40:52.212Z,1.64
2018-12-15T13:41:54.912Z,1.62
2018-12-15T13:42:58.346Z,1.60
2018-12-15T13:44:01.124Z,1.58
2018-12-15T13:45:04.252Z,1.60
2018-12-15T13:46:06.847Z,1.58
2018-12-15T13:47:09.527Z,1.62
2018-12-15T13:48:12.202Z,1.60
2018-12-15T13:49:14.776Z,1.59
2018-12-15T13:50:17.404Z,1.60
2018-12-15T13:51:20.167Z,1.65
2018-12-15T13:52:22.699Z,1.68
2018-12-15T13:53:25.233Z,1.64
2018-12-15T13:54:27.804Z,1.62